Terminal Aerodrome Forecast
Issued by NWS

Home | Current Version | Previous Version | Graphics & Text | Print | Product List | Glossary On
Versions: 1 2 3 4 5 6 7 8 9 10 11 12 13 14 15 16 17 18 19 20 21
000
FTUS43 KBIS 202300
TAFMOT
TAF
KMOT 202324Z 2100/2124 21004KT P6SM VCTS BKN100CB
      TEMPO 2100/2102 5SM -TSRA BKN040CB OVC080
     FM210400 00000KT P6SM BKN060
     FM211600 33007KT P6SM SCT035
     FM212300 35008KT P6SM BKN060=

USA.gov is the U.S. government's official web portal to all federal, state and local government web resources and services.